Language selection

Features

My Weather Profile Weather Topics  | 

Laurentian Fan: Past 24 Hour Conditions

 

Mary's Harbour

09:30 PM NST 13 December 2019
Disclaimer

This table is a summary of hourly weather conditions for the past 24 hours.
Please note that these observations might not always be representative of weather conditions over their associated marine area.

Date / Time
(NST)
Wind(knots) Conditions Visibility(km) Pressure(kPa) Air tempC) Relative humidity(%) Dew pointC) Wind Chill
13 December 2019
21:30 W 11 gust 19 Clear 16 103.2 -18 56 -25 -28
20:30 W 12 Clear 16 103.1 -17 56 -24 -28
19:30 W 9 gust 18 Clear 16 103.1 -17 54 -24 -26
18:30 W 15 gust 22 Clear 16 103.0 -16 52 -24 -27
17:30 W 9 gust 17 Clear 16 103.0 -16 49 -25 -25
16:30 W 15 gust 25 Clear 16 102.9 -15 44 -25 -26
15:30 W 15 gust 25 Sunny 16 102.7 -15 39 -26 -26
14:30 W 13 gust 20 Sunny 16 102.6 -14 37 -26 -24
13:30 W 17 gust 24 Sunny 16 102.5 -15 40 -26 -26
12:30 W 16 gust 24 Sunny 16 102.5 -16 40 -26 -27
11:30 W 15 gust 26 Sunny 16 102.5 -16 40 -27 -27
10:30 W 21 gust 34 Sunny 16 102.3 -18 44 -28 -31
9:30 W 21 gust 30 Sunny 16 102.3 -19 49 -28 -33
8:30 W 19 gust 29 Sunny 16 102.2 -20 51 -28 -34
7:30 W 16 gust 30 Clear 16 102.1 -20 52 -28 -33
6:30 W 16 gust 27 Clear 16 102.1 -21 52 -28 -33
5:30 W 20 gust 27 Clear 16 102.1 -21 53 -28 -34
4:30 W 19 gust 26 Clear 16 102.1 -20 55 -27 -34
3:30 W 19 gust 26 Clear 16 102.0 -20 56 -27 -33
2:30 W 14 gust 19 Clear 16 102.0 -19 57 -26 -31
1:30 W 14 gust 21 Clear 16 101.9 -19 59 -25 -30
0:30 W 18 gust 24 Clear 16 101.8 -18 58 -25 -31
12 December 2019
23:30 W 15 gust 27 Cloudy 16 101.7 -17 56 -24 -29
22:30 W 13 gust 22 Mostly Cloudy 16 101.7 -18 56 -24 -28
21:30 W 12 gust 24 Cloudy 16 101.7 -17 53 -25 -27

Zoom-in to make a selection

Map of Atlantic - Newfoundland marine weather areas Banquereau - 44139 Blanc-Sablon Airport Cap Whittle Chevery Natashquan Airport Heath Point Îles de la Madeleine Airport Miscou Island Eskasoni (First Nations) Grand Étang Ingonish Beach North Mountain St.Paul Island J.A. Douglas McCurdy Sydney Airport Charlottetown Airport East Point North Cape Argentia Bonavista Burgeo Cape Race Corner Brook Daniel's Harbour Englee Ferolle Point La Scie Port aux Basques Rocky Harbour Sagona Island St. Anthony Airport St. John's Int'l Airport St. Lawrence Stephenville Airport Twillingate Winterland Branch Hill Wreckhouse Grates Cove Pool's Island Marticot Island Long Pond Cartwright Airport Mary's Harbour
Legend:
buoy Buoy
land station Land Station

Atlantic - Newfoundland Area

Another Region

What we are doing

Date modified: